createdAt,value
2023-04-23T00:00:02.053Z,2.10
2023-04-23T00:02:35.290Z,1.73
2023-04-23T00:05:08.895Z,2.35
2023-04-23T00:07:39.588Z,2.47
2023-04-23T00:10:11.092Z,1.80
2023-04-23T00:12:41.696Z,1.60
2023-04-23T00:15:13.416Z,2.15
2023-04-23T00:17:43.700Z,1.65
2023-04-23T00:20:14.391Z,2.08
2023-04-23T00:22:44.870Z,3.28
2023-04-23T00:25:15.477Z,2.58
2023-04-23T00:27:45.618Z,2.60
2023-04-23T00:30:16.022Z,3.95
2023-04-23T00:32:46.550Z,3.90
2023-04-23T00:35:16.939Z,3.25
2023-04-23T00:37:47.298Z,1.90
2023-04-23T00:40:17.803Z,2.95
2023-04-23T00:42:48.910Z,2.42
2023-04-23T00:45:19.753Z,5.28
2023-04-23T00:47:50.565Z,5.85
2023-04-23T00:50:20.889Z,7.57
2023-04-23T00:52:51.171Z,3.10
2023-04-23T00:55:22.893Z,6.00
2023-04-23T00:57:53.824Z,3.97
2023-04-23T01:00:24.759Z,3.00
2023-04-23T01:02:56.418Z,4.88
2023-04-23T01:05:27.057Z,3.15
2023-04-23T01:07:58.021Z,4.75
2023-04-23T01:10:28.523Z,6.72
2023-04-23T01:12:58.884Z,3.35
2023-04-23T01:15:29.247Z,3.80
2023-04-23T01:18:00.252Z,5.53
2023-04-23T01:20:30.656Z,3.75
2023-04-23T01:23:00.944Z,3.13
2023-04-23T01:25:31.234Z,2.53
2023-04-23T01:28:01.732Z,4.22
2023-04-23T01:30:32.707Z,3.80
2023-04-23T01:33:03.607Z,2.63
2023-04-23T01:35:34.230Z,2.70
2023-04-23T01:38:06.379Z,3.40
2023-04-23T01:40:37.827Z,2.50
2023-04-23T01:43:09.082Z,3.33
2023-04-23T01:45:39.513Z,2.13
2023-04-23T01:48:09.819Z,3.03
2023-04-23T01:50:40.924Z,2.28
2023-04-23T01:53:11.219Z,2.58
2023-04-23T01:55:42.382Z,3.63
2023-04-23T01:58:12.581Z,2.55
2023-04-23T02:00:42.972Z,4.28
2023-04-23T02:03:13.406Z,4.75
2023-04-23T02:05:44.977Z,2.60
2023-04-23T02:08:15.797Z,2.40
2023-04-23T02:10:46.301Z,4.22
2023-04-23T02:13:16.682Z,2.10
2023-04-23T02:15:47.244Z,3.80
2023-04-23T02:18:17.578Z,2.30
2023-04-23T02:20:47.889Z,2.67
2023-04-23T02:23:18.237Z,3.65
2023-04-23T02:25:48.489Z,2.47
2023-04-23T02:28:18.756Z,2.33
2023-04-23T02:30:49.598Z,3.10
2023-04-23T02:33:21.283Z,5.00
2023-04-23T02:35:51.531Z,1.83
2023-04-23T02:38:29.659Z,2.33
2023-04-23T02:40:59.801Z,2.88
2023-04-23T02:43:29.960Z,2.13
2023-04-23T02:46:00.207Z,2.45
2023-04-23T02:48:31.426Z,1.80
2023-04-23T02:51:04.402Z,2.28
2023-04-23T02:53:34.976Z,5.15
2023-04-23T02:56:05.259Z,2.30
2023-04-23T02:58:35.529Z,3.70
2023-04-23T03:01:06.006Z,2.88
2023-04-23T03:03:37.115Z,2.10
2023-04-23T03:06:08.457Z,2.55
2023-04-23T03:08:38.649Z,3.00
2023-04-23T03:11:08.805Z,4.03
2023-04-23T03:13:39.131Z,2.85
2023-04-23T03:16:09.555Z,2.42
2023-04-23T03:18:39.791Z,3.50
2023-04-23T03:21:10.026Z,2.50
2023-04-23T03:23:40.259Z,2.40
2023-04-23T03:26:10.902Z,1.98
2023-04-23T03:28:41.209Z,2.17
2023-04-23T03:31:12.223Z,2.40
2023-04-23T03:33:42.712Z,2.10
2023-04-23T03:36:13.172Z,3.30
2023-04-23T03:38:43.454Z,2.17
2023-04-23T03:41:14.044Z,2.20
2023-04-23T03:43:44.492Z,5.03
2023-04-23T03:46:15.072Z,3.42
2023-04-23T03:48:45.483Z,1.80
2023-04-23T03:51:15.950Z,4.40
2023-04-23T03:53:47.245Z,3.20
2023-04-23T03:56:18.075Z,2.47
2023-04-23T03:58:48.434Z,2.60
2023-04-23T04:01:18.933Z,1.90
2023-04-23T04:03:49.759Z,1.98
2023-04-23T04:06:20.215Z,3.53
2023-04-23T04:08:50.476Z,1.83
2023-04-23T04:11:20.764Z,2.78
2023-04-23T04:13:51.130Z,2.53
2023-04-23T04:16:21.352Z,2.15
2023-04-23T04:18:51.968Z,3.38
2023-04-23T04:21:23.213Z,1.90
2023-04-23T04:23:53.437Z,2.50
2023-04-23T04:26:23.815Z,2.63
2023-04-23T04:28:54.963Z,2.72
2023-04-23T04:31:25.210Z,2.63
2023-04-23T04:33:55.373Z,3.28
2023-04-23T04:36:28.803Z,1.98
2023-04-23T04:39:02.364Z,4.55
2023-04-23T04:41:32.630Z,3.08
2023-04-23T04:44:02.896Z,2.00
2023-04-23T04:46:33.604Z,2.63
2023-04-23T04:49:03.990Z,2.10
2023-04-23T04:51:34.282Z,3.92
2023-04-23T04:54:04.431Z,2.00
2023-04-23T04:56:34.808Z,2.92
2023-04-23T04:59:05.838Z,2.38
2023-04-23T05:01:36.488Z,1.95
2023-04-23T05:04:07.084Z,3.45
2023-04-23T05:06:37.357Z,3.25
2023-04-23T05:09:07.534Z,2.05
2023-04-23T05:11:37.768Z,5.07
2023-04-23T05:14:08.208Z,5.55
2023-04-23T05:16:38.601Z,4.97
2023-04-23T05:19:09.953Z,3.88
2023-04-23T05:21:40.404Z,9.55
2023-04-23T05:24:10.654Z,4.20
2023-04-23T05:26:40.864Z,2.55
2023-04-23T05:29:11.159Z,4.63
2023-04-23T05:31:41.520Z,5.05
2023-04-23T05:34:11.758Z,4.47
2023-04-23T05:36:42.170Z,1.70
2023-04-23T05:39:12.386Z,5.03
2023-04-23T05:41:42.969Z,1.88
2023-04-23T05:44:13.161Z,3.60
2023-04-23T05:46:43.356Z,1.95
2023-04-23T05:49:13.585Z,4.00
2023-04-23T05:51:44.743Z,2.00
2023-04-23T05:54:16.272Z,4.25
2023-04-23T05:56:46.487Z,1.98
2023-04-23T05:59:16.712Z,3.17
2023-04-23T06:01:46.985Z,3.70
2023-04-23T06:04:18.377Z,4.55
2023-04-23T06:06:48.695Z,1.42
2023-04-23T06:09:18.939Z,2.72
2023-04-23T06:11:52.135Z,1.77
2023-04-23T06:14:22.597Z,2.15
2023-04-23T06:16:52.825Z,2.22
2023-04-23T06:19:23.348Z,3.88
2023-04-23T06:21:54.527Z,2.00
2023-04-23T06:24:24.927Z,1.67
2023-04-23T06:26:55.253Z,2.33
2023-04-23T06:29:25.658Z,2.28
2023-04-23T06:31:58.529Z,1.65
2023-04-23T06:34:28.871Z,3.55
2023-04-23T06:36:59.315Z,4.15
2023-04-23T06:39:29.596Z,2.85
2023-04-23T06:41:59.896Z,2.95
2023-04-23T06:44:33.679Z,2.40
2023-04-23T06:47:04.021Z,2.00
2023-04-23T06:49:34.343Z,2.28
2023-04-23T06:52:04.720Z,6.20
2023-04-23T06:54:34.952Z,4.50
2023-04-23T06:57:05.173Z,4.38
2023-04-23T06:59:35.466Z,2.90
2023-04-23T07:02:05.932Z,3.17
2023-04-23T07:04:36.262Z,2.65
2023-04-23T07:07:06.541Z,3.58
2023-04-23T07:09:36.715Z,2.15
2023-04-23T07:12:07.114Z,2.15
2023-04-23T07:14:37.407Z,4.88
2023-04-23T07:17:07.818Z,1.80
2023-04-23T07:19:38.139Z,1.90
2023-04-23T07:22:08.321Z,1.70
2023-04-23T07:24:38.561Z,3.25
2023-04-23T07:27:09.663Z,5.95
2023-04-23T07:29:39.954Z,7.05
2023-04-23T07:32:10.171Z,2.30
2023-04-23T07:34:41.203Z,2.35
2023-04-23T07:37:11.877Z,3.67
2023-04-23T07:39:43.980Z,4.30
2023-04-23T07:42:15.229Z,3.30
2023-04-23T07:44:45.435Z,2.28
2023-04-23T07:47:15.702Z,3.63
2023-04-23T07:49:46.030Z,2.88
2023-04-23T07:52:17.236Z,3.40
2023-04-23T07:54:48.062Z,7.22
2023-04-23T07:57:18.406Z,3.40
2023-04-23T07:59:48.814Z,3.65
2023-04-23T08:02:20.094Z,2.00
2023-04-23T08:04:50.530Z,3.65
2023-04-23T08:07:20.960Z,3.67
2023-04-23T08:09:51.251Z,3.38
2023-04-23T08:12:22.857Z,6.35
2023-04-23T08:14:53.184Z,5.95
2023-04-23T08:17:23.466Z,2.53
2023-04-23T08:19:53.770Z,2.22
2023-04-23T08:22:24.781Z,2.30
2023-04-23T08:24:55.426Z,4.15
2023-04-23T08:27:25.721Z,3.63
2023-04-23T08:29:55.924Z,3.92
2023-04-23T08:32:26.396Z,5.15
2023-04-23T08:34:57.014Z,4.13
2023-04-23T08:37:31.283Z,3.13
2023-04-23T08:40:02.411Z,4.22
2023-04-23T08:42:45.342Z,3.92
2023-04-23T08:45:16.051Z,3.30
2023-04-23T08:47:46.548Z,4.65
2023-04-23T08:50:21.904Z,7.63
2023-04-23T08:53:00.092Z,5.70
2023-04-23T08:55:30.636Z,6.00
2023-04-23T08:58:02.062Z,2.45
2023-04-23T09:00:33.005Z,5.07
2023-04-23T09:03:04.158Z,5.60
2023-04-23T09:05:34.895Z,6.05
2023-04-23T09:08:05.122Z,5.78
2023-04-23T09:10:38.519Z,5.53
2023-04-23T09:13:08.787Z,3.13
2023-04-23T09:15:41.648Z,3.33
2023-04-23T09:18:12.606Z,3.08
2023-04-23T09:20:43.434Z,2.88
2023-04-23T09:23:17.931Z,3.40
2023-04-23T09:25:48.190Z,3.92
2023-04-23T09:28:18.563Z,5.15
2023-04-23T09:30:51.065Z,2.60
2023-04-23T09:33:21.257Z,5.35
2023-04-23T09:35:52.043Z,3.45
2023-04-23T09:38:28.085Z,4.35
2023-04-23T09:40:59.480Z,3.92
2023-04-23T09:43:33.263Z,3.35
2023-04-23T09:46:03.605Z,3.35
2023-04-23T09:48:44.946Z,3.45
2023-04-23T09:51:17.987Z,3.33
2023-04-23T09:53:48.352Z,3.10
2023-04-23T09:56:18.573Z,3.33
2023-04-23T09:58:49.001Z,3.28
2023-04-23T10:01:19.314Z,3.05
2023-04-23T10:03:55.570Z,4.40
2023-04-23T10:06:44.498Z,3.33
2023-04-23T10:09:24.808Z,8.32
2023-04-23T10:12:05.198Z,3.47
2023-04-23T10:14:35.433Z,3.60
2023-04-23T10:17:06.889Z,5.40
2023-04-23T10:19:42.872Z,5.13
2023-04-23T10:24:53.620Z,3.65
2023-04-23T10:27:40.445Z,5.22
2023-04-23T10:30:19.188Z,4.50
2023-04-23T10:32:51.779Z,5.45
2023-04-23T10:35:22.149Z,5.35
2023-04-23T10:37:52.736Z,3.38
2023-04-23T10:40:28.653Z,4.13
2023-04-23T10:42:59.814Z,4.65
2023-04-23T10:45:34.645Z,10.25
2023-04-23T10:48:06.400Z,10.82
2023-04-23T10:50:47.708Z,8.00
2023-04-23T10:53:28.712Z,4.88
2023-04-23T10:56:09.589Z,5.13
2023-04-23T10:58:53.453Z,5.43
2023-04-23T11:01:28.109Z,5.65
2023-04-23T11:03:59.189Z,6.28
2023-04-23T11:06:50.676Z,3.95
2023-04-23T11:09:35.099Z,7.15
2023-04-23T11:12:08.514Z,5.45
2023-04-23T11:14:39.997Z,7.53
2023-04-23T11:17:10.330Z,8.90
2023-04-23T11:19:42.980Z,6.93
2023-04-23T11:22:20.348Z,7.80
2023-04-23T11:24:51.293Z,9.82
2023-04-23T11:27:22.793Z,10.38
2023-04-23T11:29:54.899Z,11.75
2023-04-23T11:32:25.861Z,15.02
2023-04-23T11:34:56.478Z,12.15
2023-04-23T11:37:28.723Z,12.35
2023-04-23T11:39:58.941Z,14.13
2023-04-23T11:42:30.195Z,9.55
2023-04-23T11:45:00.498Z,11.98
2023-04-23T11:47:30.727Z,14.60
2023-04-23T11:50:04.488Z,9.65
2023-04-23T11:52:35.140Z,11.40
2023-04-23T11:55:11.551Z,12.10
2023-04-23T11:57:46.849Z,12.23
2023-04-23T12:00:28.162Z,12.38
2023-04-23T12:03:00.704Z,11.85
2023-04-23T12:05:41.591Z,10.20
2023-04-23T12:08:14.510Z,12.52
2023-04-23T12:10:51.257Z,8.25
2023-04-23T12:13:27.909Z,11.13
2023-04-23T12:16:01.120Z,8.30
2023-04-23T12:18:32.640Z,9.30
2023-04-23T12:21:10.952Z,7.13
2023-04-23T12:23:43.461Z,10.48
2023-04-23T12:26:15.607Z,8.88
2023-04-23T12:28:57.337Z,11.18
2023-04-23T12:31:32.583Z,6.93
2023-04-23T12:34:11.269Z,8.93
2023-04-23T12:36:42.808Z,5.57
2023-04-23T12:39:36.437Z,6.32
2023-04-23T12:42:09.843Z,7.35
2023-04-23T12:44:42.981Z,6.25
2023-04-23T12:47:13.677Z,7.13
2023-04-23T12:49:45.434Z,7.85
2023-04-23T12:52:15.916Z,6.00
2023-04-23T12:54:47.028Z,6.65
2023-04-23T12:57:18.294Z,7.70
2023-04-23T12:59:50.047Z,5.35
2023-04-23T13:02:20.411Z,6.30
2023-04-23T13:04:50.711Z,6.85
2023-04-23T13:07:21.032Z,5.88
2023-04-23T13:09:51.373Z,4.70
2023-04-23T13:12:21.688Z,4.38
2023-04-23T13:14:52.341Z,5.97
2023-04-23T13:17:22.792Z,5.90
2023-04-23T13:19:53.109Z,4.22
2023-04-23T13:22:24.567Z,5.13
2023-04-23T13:24:54.871Z,4.90
2023-04-23T13:27:26.425Z,4.00
2023-04-23T13:29:57.078Z,3.47
2023-04-23T13:32:28.886Z,6.95
2023-04-23T13:35:02.318Z,5.75
2023-04-23T13:37:33.502Z,4.47
2023-04-23T13:40:04.503Z,5.30
2023-04-23T13:42:35.988Z,3.85
2023-04-23T13:45:08.020Z,4.35
2023-04-23T13:47:38.426Z,4.05
2023-04-23T13:50:09.425Z,5.95
2023-04-23T13:52:41.448Z,3.53
2023-04-23T13:55:12.135Z,5.13
2023-04-23T13:57:42.885Z,5.43
2023-04-23T14:00:14.451Z,4.50
2023-04-23T14:02:44.938Z,6.45
2023-04-23T14:05:15.714Z,4.07
2023-04-23T14:07:46.675Z,3.80
2023-04-23T14:10:17.521Z,3.40
2023-04-23T14:12:50.821Z,3.78
2023-04-23T14:15:21.189Z,3.33
2023-04-23T14:17:51.834Z,4.18
2023-04-23T14:20:22.205Z,4.35
2023-04-23T14:22:57.394Z,3.30
2023-04-23T14:25:42.692Z,3.35
2023-04-23T14:28:32.952Z,3.90
2023-04-23T14:31:04.304Z,3.47
2023-04-23T14:33:34.604Z,2.88
2023-04-23T14:36:05.150Z,3.83
2023-04-23T14:38:35.400Z,3.38
2023-04-23T14:41:05.582Z,3.80
2023-04-23T14:43:35.873Z,2.92
2023-04-23T14:46:06.063Z,4.93
2023-04-23T14:48:37.409Z,3.50
2023-04-23T14:51:07.769Z,3.60
2023-04-23T14:53:38.133Z,3.65
2023-04-23T14:56:08.594Z,2.90
2023-04-23T14:58:38.922Z,3.83
2023-04-23T15:01:09.240Z,3.13
2023-04-23T15:03:39.764Z,3.28
2023-04-23T15:06:10.631Z,1.80
2023-04-23T15:08:41.812Z,2.50
2023-04-23T15:11:14.973Z,2.15
2023-04-23T15:14:27.248Z,3.25
2023-04-23T15:16:57.560Z,2.50
2023-04-23T15:19:27.763Z,2.00
2023-04-23T15:21:57.912Z,2.17
2023-04-23T15:24:28.252Z,2.70
2023-04-23T15:27:00.908Z,2.38
2023-04-23T15:29:31.853Z,3.33
2023-04-23T15:32:02.038Z,2.47
2023-04-23T15:34:32.565Z,2.00
2023-04-23T15:37:02.697Z,2.63
2023-04-23T15:39:32.916Z,1.75
2023-04-23T15:42:03.527Z,2.15
2023-04-23T15:44:33.789Z,2.40
2023-04-23T15:47:05.118Z,2.35
2023-04-23T15:49:35.399Z,2.00
2023-04-23T15:52:05.641Z,2.40
2023-04-23T15:54:35.909Z,2.20
2023-04-23T15:57:06.207Z,2.33
2023-04-23T15:59:36.403Z,2.42
2023-04-23T16:02:07.311Z,2.63
2023-04-23T16:04:37.829Z,2.33
2023-04-23T16:07:08.331Z,2.30
2023-04-23T16:09:38.769Z,2.47
2023-04-23T16:12:10.649Z,2.42
2023-04-23T16:14:41.833Z,2.35
2023-04-23T16:17:12.373Z,2.00
2023-04-23T16:19:43.033Z,2.33
2023-04-23T16:22:13.439Z,2.50
2023-04-23T16:24:43.713Z,2.58
2023-04-23T16:27:14.773Z,2.75
2023-04-23T16:29:44.920Z,2.60
2023-04-23T16:32:15.168Z,2.03
2023-04-23T16:34:45.410Z,2.50
2023-04-23T16:37:17.583Z,2.75
2023-04-23T16:39:48.202Z,2.00
2023-04-23T16:42:18.361Z,2.65
2023-04-23T16:44:48.624Z,2.60
2023-04-23T16:47:18.940Z,2.85
2023-04-23T16:49:49.220Z,2.38
2023-04-23T16:52:19.483Z,2.75
2023-04-23T16:54:50.985Z,3.05
2023-04-23T16:57:22.409Z,2.80
2023-04-23T16:59:54.408Z,2.50
2023-04-23T17:02:24.997Z,2.38
2023-04-23T17:04:55.549Z,2.70
2023-04-23T17:07:26.384Z,2.50
2023-04-23T17:09:56.658Z,2.60
2023-04-23T17:12:27.165Z,2.63
2023-04-23T17:14:57.518Z,2.95
2023-04-23T17:17:27.878Z,2.35
2023-04-23T17:19:58.114Z,2.55
2023-04-23T17:22:28.489Z,2.58
2023-04-23T17:24:58.852Z,2.90
2023-04-23T17:27:29.117Z,2.55
2023-04-23T17:29:59.282Z,2.30
2023-04-23T17:32:29.601Z,2.88
2023-04-23T17:35:09.321Z,2.90
2023-04-23T17:37:40.973Z,2.80
2023-04-23T17:40:12.169Z,2.53
2023-04-23T17:42:42.491Z,2.70
2023-04-23T17:45:13.696Z,3.25
2023-04-23T17:47:44.014Z,2.50
2023-04-23T17:50:14.701Z,2.45
2023-04-23T17:52:46.711Z,2.53
2023-04-23T17:55:17.069Z,2.55
2023-04-23T17:57:47.534Z,3.20
2023-04-23T18:00:19.516Z,2.85
2023-04-23T18:02:49.972Z,2.50
2023-04-23T18:05:21.025Z,2.80
2023-04-23T18:07:51.268Z,2.45
2023-04-23T18:10:21.631Z,2.70
2023-04-23T18:12:52.137Z,2.85
2023-04-23T18:15:22.705Z,2.65
2023-04-23T18:17:55.552Z,2.50
2023-04-23T18:20:26.332Z,2.70
2023-04-23T18:22:56.977Z,2.97
2023-04-23T18:25:28.651Z,2.38
2023-04-23T18:27:58.783Z,3.03
2023-04-23T18:30:29.215Z,2.85
2023-04-23T18:33:27.966Z,2.75
2023-04-23T18:36:07.363Z,3.05
2023-04-23T18:38:46.924Z,2.83
2023-04-23T18:41:17.456Z,2.67
2023-04-23T18:43:47.714Z,2.88
2023-04-23T18:46:18.604Z,2.88
2023-04-23T18:48:59.504Z,2.95
2023-04-23T18:51:53.502Z,2.53
2023-04-23T18:54:25.396Z,2.47
2023-04-23T18:56:55.641Z,2.97
2023-04-23T18:59:26.482Z,2.80
2023-04-23T19:01:58.589Z,2.75
2023-04-23T19:04:29.644Z,2.58
2023-04-23T19:07:00.384Z,2.50
2023-04-23T19:09:30.784Z,2.97
2023-04-23T19:12:01.024Z,2.88
2023-04-23T19:14:31.324Z,2.88
2023-04-23T19:17:01.710Z,3.03
2023-04-23T19:19:33.673Z,2.85
2023-04-23T19:22:05.354Z,2.70
2023-04-23T19:24:36.169Z,3.00
2023-04-23T19:27:08.443Z,2.90
2023-04-23T19:29:38.588Z,2.58
2023-04-23T19:32:08.949Z,3.08
2023-04-23T19:34:39.187Z,3.20
2023-04-23T19:37:09.459Z,2.65
2023-04-23T19:39:39.908Z,2.63
2023-04-23T19:42:10.349Z,2.97
2023-04-23T19:44:40.639Z,2.70
2023-04-23T19:47:10.876Z,2.70
2023-04-23T19:49:41.236Z,3.00
2023-04-23T19:52:20.936Z,2.90
2023-04-23T19:54:51.614Z,2.33
2023-04-23T19:57:23.869Z,2.80
2023-04-23T19:59:54.346Z,3.00
2023-04-23T20:02:25.106Z,2.83
2023-04-23T20:04:55.419Z,3.08
2023-04-23T20:07:25.632Z,2.97
2023-04-23T20:09:55.757Z,3.22
2023-04-23T20:12:26.559Z,3.17
2023-04-23T20:14:57.430Z,2.90
2023-04-23T20:17:31.703Z,2.92
2023-04-23T20:20:03.329Z,2.95
2023-04-23T20:22:33.689Z,2.63
2023-04-23T20:25:07.064Z,2.90
2023-04-23T20:27:37.762Z,3.28
2023-04-23T20:30:10.151Z,3.17
2023-04-23T20:32:40.370Z,3.00
2023-04-23T20:35:11.230Z,2.80
2023-04-23T20:37:42.415Z,3.00
2023-04-23T20:40:13.427Z,2.90
2023-04-23T20:42:44.084Z,3.00
2023-04-23T20:45:15.960Z,2.65
2023-04-23T20:47:48.486Z,2.53
2023-04-23T20:50:19.092Z,2.72
2023-04-23T20:52:49.299Z,3.28
2023-04-23T20:55:19.609Z,2.80
2023-04-23T20:57:49.881Z,2.75
2023-04-23T21:00:21.954Z,2.88
2023-04-23T21:02:52.330Z,2.55
2023-04-23T21:05:22.699Z,2.88
2023-04-23T21:07:52.895Z,2.83
2023-04-23T21:10:23.560Z,2.47
2023-04-23T21:12:54.066Z,2.88
2023-04-23T21:15:24.406Z,2.67
2023-04-23T21:17:54.785Z,2.67
2023-04-23T21:20:25.176Z,2.20
2023-04-23T21:22:55.623Z,2.58
2023-04-23T21:25:25.970Z,2.40
2023-04-23T21:28:00.563Z,2.63
2023-04-23T21:30:36.806Z,2.50
2023-04-23T21:33:07.048Z,2.58
2023-04-23T21:35:37.351Z,2.60
2023-04-23T21:38:08.249Z,2.60
2023-04-23T21:40:42.717Z,2.95
2023-04-23T21:43:13.625Z,1.85
2023-04-23T21:45:44.144Z,2.15
2023-04-23T21:48:14.983Z,2.63
2023-04-23T21:50:45.570Z,2.22
2023-04-23T21:53:16.191Z,2.22
2023-04-23T21:55:46.454Z,3.25
2023-04-23T21:58:17.951Z,2.22
2023-04-23T22:00:49.562Z,2.00
2023-04-23T22:03:30.775Z,2.50
2023-04-23T22:06:08.998Z,2.30
2023-04-23T22:08:39.814Z,1.90
2023-04-23T22:11:13.147Z,1.83
2023-04-23T22:13:43.616Z,2.10
2023-04-23T22:16:24.923Z,1.90
2023-04-23T22:18:59.588Z,2.53
2023-04-23T22:21:29.988Z,1.90
2023-04-23T22:24:00.331Z,1.90
2023-04-23T22:26:30.678Z,3.00
2023-04-23T22:29:00.953Z,2.20
2023-04-23T22:31:31.228Z,2.53
2023-04-23T22:34:01.535Z,2.28
2023-04-23T22:36:33.432Z,1.90
2023-04-23T22:39:04.534Z,1.90
2023-04-23T22:41:34.798Z,2.30
2023-04-23T22:44:04.943Z,2.08
2023-04-23T22:46:35.269Z,1.92
2023-04-23T22:49:06.275Z,2.95
2023-04-23T22:51:37.845Z,1.88
2023-04-23T22:54:08.239Z,1.70
2023-04-23T22:56:39.296Z,2.05
2023-04-23T22:59:09.725Z,2.35
2023-04-23T23:01:39.965Z,3.45
2023-04-23T23:04:10.366Z,4.28
2023-04-23T23:06:40.961Z,3.10
2023-04-23T23:09:12.003Z,2.00
2023-04-23T23:11:42.452Z,2.80
2023-04-23T23:14:13.100Z,1.73
2023-04-23T23:16:44.054Z,3.92
2023-04-23T23:19:14.886Z,2.28
2023-04-23T23:21:45.181Z,2.90
2023-04-23T23:24:16.026Z,2.88
2023-04-23T23:26:46.496Z,2.00
2023-04-23T23:29:16.962Z,3.03
2023-04-23T23:31:47.432Z,1.63
2023-04-23T23:34:17.894Z,2.47
2023-04-23T23:36:50.928Z,3.92
2023-04-23T23:39:22.170Z,1.80
2023-04-23T23:41:52.588Z,3.42
2023-04-23T23:44:25.450Z,2.85
2023-04-23T23:46:55.670Z,2.22
2023-04-23T23:49:25.873Z,3.20
2023-04-23T23:51:56.162Z,4.10
2023-04-23T23:54:26.352Z,1.77
2023-04-23T23:56:58.637Z,3.67
2023-04-23T23:59:29.144Z,2.10
